Huvudsida
METAR-TAF:

METAR-TAF

Flygplatser :

Molde, Norge

Molde flygplats. Årø

latitud: 62-45N, longitud: 007-16E, höjd: 0 m

Aktuellt väderrapport

Denna rapport gjordes för 30 minuter sedan, klockan 10:20 UTC
Vind 8 kt från nord/nordost
Temperatur -1°C
Fuktighet 54%
Tryck 984 hPa
Sikt 10 km eller mer
Inga moln under 1 500 m eller inga cumulonimbus

METAR: ENML 171020Z 02008KT CAVOK M01/M09 Q0984

Tid: 11:50 (10:50 UTC)

Väderprognos

Denna rapport gjordes för 2 timmar och 50 minuter sedan, klockan 08:00 UTC
Prognos gäller från 17 kl. 09 UTC till 17 kl. 18 UTC
Vind 7 kt från nord/nordost
Sikt 10 km eller mer
Inga moln under 1 500 m eller inga cumulonimbus

TAF: ENML 170800Z 1709/1718 03007KT CAVOK

Aktuella väderrapporter och prognoser från 4000 flygplatser (METAR- och TAF-rapporter).

De tillgängliga stationerna syns som gula och röda prickar på kartan.

För musen över prickarna för att se namnen på stationerna.

Klicka sedan för att få väderrapporter och prognoser.

För att ändra kartan: Klicka på de gröna knapparna med ett svart kors på för att zooma in; den gröna knappen med ett streck på för att zooma ut; eller på de gröna pilarna för angränsande kartor.


METAR-TAF: